Time;durP1;ratioP1;P1;durP2;ratioP2;P2;SDS_P1;SDS_P2;PMS_P1;PMS_P2;Temp;Humidity;BMP_temperature;BMP_pressure;BME280_temperature;BME280_humidity;BME280_pressure;Samples;Min_cycle;Max_cycle;Signal;HPM_P1;HPM_P2
2024/02/16 00:01:08;;;;;;;3.83;2.35;;;;;;;10.84;67.20;96534.41;4916702;29;20044;-78
2024/02/16 00:03:36;;;;;;;4.07;2.42;;;;;;;10.84;66.81;96542.22;4916653;29;20063;-79
2024/02/16 00:06:04;;;;;;;2.75;2.22;;;;;;;10.85;68.01;96543.84;4916573;29;20413;-78
2024/02/16 00:08:34;;;;;;;2.92;2.38;;;;;;;10.82;67.12;96533.75;4917014;29;20076;-78
2024/02/16 00:11:03;;;;;;;2.80;2.45;;;;;;;10.79;67.67;96540.16;4916504;29;20103;-78
2024/02/16 00:13:31;;;;;;;3.17;2.40;;;;;;;10.77;66.91;96526.50;4916701;29;20056;-78
2024/02/16 00:15:58;;;;;;;4.93;2.58;;;;;;;10.76;67.42;96527.50;4916413;29;20139;-77
2024/02/16 00:18:26;;;;;;;5.65;2.35;;;;;;;10.75;67.23;96532.91;4916352;29;20059;-78
2024/02/16 00:20:53;;;;;;;3.97;2.50;;;;;;;10.72;67.98;96534.88;4916488;29;20137;-78
2024/02/16 00:23:22;;;;;;;4.28;2.83;;;;;;;10.70;66.99;96530.84;4916114;29;20056;-78
2024/02/16 00:25:50;;;;;;;4.80;2.70;;;;;;;10.68;67.51;96532.81;4968566;23;20048;-80
2024/02/16 00:28:18;;;;;;;4.78;2.83;;;;;;;10.65;67.10;96534.00;4935981;29;20056;-79
2024/02/16 00:30:46;;;;;;;2.78;2.17;;;;;;;10.61;67.22;96531.94;4922099;29;20052;-81
2024/02/16 00:33:14;;;;;;;4.57;2.58;;;;;;;10.62;66.89;96528.34;4925212;29;20056;-80
2024/02/16 00:35:42;;;;;;;3.22;2.60;;;;;;;10.62;67.13;96529.13;4921785;29;20052;-80
2024/02/16 00:38:09;;;;;;;5.07;2.42;;;;;;;10.63;67.18;96530.78;4916305;29;20111;-80
2024/02/16 00:40:37;;;;;;;2.35;2.15;;;;;;;10.66;66.68;96533.00;4915664;29;20115;-80
2024/02/16 00:43:05;;;;;;;5.03;2.40;;;;;;;10.68;66.53;96532.81;4914729;29;20084;-80
2024/02/16 00:45:34;;;;;;;5.18;2.80;;;;;;;10.71;66.69;96542.88;4915592;29;20489;-80
2024/02/16 00:48:02;;;;;;;3.22;2.70;;;;;;;10.72;66.47;96529.66;4915914;29;20058;-80
2024/02/16 00:50:30;;;;;;;3.17;2.70;;;;;;;10.77;66.30;96547.38;4916106;29;20052;-81
2024/02/16 00:52:59;;;;;;;3.70;2.35;;;;;;;10.83;66.95;96535.41;4916438;29;20131;-81
2024/02/16 00:55:26;;;;;;;3.85;2.25;;;;;;;10.89;66.23;96538.06;4919547;29;20079;-80
2024/02/16 00:57:54;;;;;;;4.53;2.70;;;;;;;10.95;65.75;96533.09;4918144;29;20140;-80
2024/02/16 01:00:23;;;;;;;6.75;2.13;;;;;;;10.98;65.63;96536.16;4919201;29;20082;-80
2024/02/16 01:02:53;;;;;;;4.90;2.42;;;;;;;11.05;66.58;96531.81;4919925;29;20518;-80
2024/02/16 01:05:20;;;;;;;4.32;2.75;;;;;;;11.12;67.50;96534.47;4919133;29;20436;-81
2024/02/16 01:07:48;;;;;;;4.50;2.42;;;;;;;11.19;68.82;96524.09;4915230;29;20056;-80
2024/02/16 01:10:16;;;;;;;5.07;2.20;;;;;;;11.24;68.18;96533.00;4902982;29;20049;-80
2024/02/16 01:12:43;;;;;;;3.13;2.35;;;;;;;11.25;67.25;96523.34;4899360;29;20406;-80
2024/02/16 01:15:11;;;;;;;2.92;2.63;;;;;;;11.28;66.32;96528.19;4897961;29;20113;-80
2024/02/16 01:17:39;;;;;;;4.65;2.65;;;;;;;11.29;65.70;96524.59;4897861;29;20049;-81
2024/02/16 01:20:11;;;;;;;4.05;3.15;;;;;;;11.30;65.10;96534.84;4898316;29;20052;-80
2024/02/16 01:22:40;;;;;;;2.97;2.20;;;;;;;11.31;64.97;96527.81;4898346;29;20072;-80
2024/02/16 01:25:09;;;;;;;4.50;2.45;;;;;;;11.31;64.89;96522.59;4897454;29;20080;-81
2024/02/16 01:27:37;;;;;;;3.95;2.33;;;;;;;11.30;64.53;96519.19;4898512;29;20150;-80
2024/02/16 01:30:05;;;;;;;2.60;2.33;;;;;;;11.30;64.34;96520.97;4899689;29;20048;-80
2024/02/16 01:32:34;;;;;;;3.67;2.42;;;;;;;11.31;64.65;96530.44;4899822;29;20493;-80
2024/02/16 01:35:02;;;;;;;3.05;2.70;;;;;;;11.31;64.38;96517.38;4899444;29;20486;-80
2024/02/16 01:37:31;;;;;;;3.70;2.80;;;;;;;11.30;63.95;96515.75;4899988;29;20131;-80
2024/02/16 01:39:59;;;;;;;2.42;2.20;;;;;;;11.29;63.95;96519.38;4899936;29;20062;-80
2024/02/16 01:42:27;;;;;;;5.25;2.80;;;;;;;11.30;64.05;96521.81;4899551;29;20174;-80
2024/02/16 01:44:54;;;;;;;4.25;2.92;;;;;;;11.29;66.36;96521.97;4899633;29;20112;-80
2024/02/16 01:47:22;;;;;;;4.68;3.03;;;;;;;11.26;66.22;96515.34;4899755;29;20048;-80
2024/02/16 01:49:50;;;;;;;5.57;3.55;;;;;;;11.21;65.49;96509.06;4899995;29;20179;-80
2024/02/16 01:52:18;;;;;;;7.43;3.97;;;;;;;11.18;65.28;96504.22;4899712;29;20044;-80
2024/02/16 01:54:47;;;;;;;5.75;3.10;;;;;;;11.14;66.11;96507.19;4909197;29;20066;-80
2024/02/16 01:57:15;;;;;;;8.80;3.67;;;;;;;11.10;65.09;96507.75;4900314;29;20060;-80
2024/02/16 01:59:42;;;;;;;7.45;3.13;;;;;;;11.07;64.67;96506.31;4905472;29;20055;-80
2024/02/16 02:02:10;;;;;;;4.40;2.90;;;;;;;11.06;64.87;96507.34;4918537;29;20052;-79
2024/02/16 02:04:38;;;;;;;7.43;3.25;;;;;;;11.05;64.72;96508.31;4919646;29;20452;-80
2024/02/16 02:07:12;;;;;;;5.15;3.05;;;;;;;11.07;64.76;96506.31;4917696;29;20087;-80
2024/02/16 02:09:40;;;;;;;5.03;2.67;;;;;;;11.07;64.55;96503.72;4916962;29;20060;-80
2024/02/16 02:12:10;;;;;;;7.00;2.70;;;;;;;11.09;64.56;96514.78;4917595;29;20139;-80
2024/02/16 02:14:38;;;;;;;5.13;2.58;;;;;;;11.12;64.64;96514.38;4917697;29;20447;-80
2024/02/16 02:17:06;;;;;;;3.67;2.30;;;;;;;11.14;64.74;96509.00;4918141;29;20485;-80
2024/02/16 02:19:33;;;;;;;4.78;2.40;;;;;;;11.17;64.92;96510.41;4917874;29;20052;-81
2024/02/16 02:22:01;;;;;;;5.43;2.38;;;;;;;11.16;64.66;96508.81;4917652;29;20052;-81
2024/02/16 02:24:30;;;;;;;5.43;2.58;;;;;;;11.12;64.45;96518.81;4916895;29;20107;-81
2024/02/16 02:26:58;;;;;;;6.22;3.22;;;;;;;11.09;64.69;96513.97;4917106;29;20066;-79
2024/02/16 02:29:25;;;;;;;5.15;2.78;;;;;;;11.02;64.74;96513.91;4918003;29;20063;-80
2024/02/16 02:31:53;;;;;;;3.08;2.33;;;;;;;10.97;64.66;96507.63;4917580;29;20493;-80
2024/02/16 02:34:21;;;;;;;6.03;2.70;;;;;;;10.96;64.68;96514.66;4917860;29;20051;-80
2024/02/16 02:36:49;;;;;;;2.65;2.30;;;;;;;10.95;64.60;96505.19;4918003;29;20491;-80
2024/02/16 02:39:16;;;;;;;4.82;2.85;;;;;;;10.90;64.52;96502.34;4917509;29;20142;-80
2024/02/16 02:41:45;;;;;;;3.00;2.30;;;;;;;10.83;64.86;96498.88;4917592;29;20079;-80
2024/02/16 02:44:13;;;;;;;3.90;2.45;;;;;;;10.77;64.94;96495.19;4917103;29;20056;-80
2024/02/16 02:46:40;;;;;;;5.00;2.83;;;;;;;10.73;65.26;96493.94;4917295;29;20052;-80
2024/02/16 02:49:08;;;;;;;4.78;2.40;;;;;;;10.70;65.42;96497.72;4917317;29;20055;-80
2024/02/16 02:51:36;;;;;;;3.50;2.75;;;;;;;10.69;65.49;96498.72;4919590;29;20060;-78
2024/02/16 02:54:04;;;;;;;3.88;2.42;;;;;;;10.69;65.44;96492.69;4928205;29;20090;-80
2024/02/16 02:56:31;;;;;;;5.25;2.67;;;;;;;10.65;65.31;96489.66;4917084;29;20131;-80
2024/02/16 02:59:00;;;;;;;5.78;2.95;;;;;;;10.61;65.72;96490.22;4917218;29;20088;-80
2024/02/16 03:01:28;;;;;;;8.30;2.92;;;;;;;10.60;65.92;96493.78;4916967;29;20089;-80
2024/02/16 03:03:57;;;;;;;3.72;2.78;;;;;;;10.58;65.73;96491.38;4916937;29;20131;-81
2024/02/16 03:06:25;;;;;;;5.70;2.75;;;;;;;10.52;65.91;96497.34;4916885;29;20060;-80
2024/02/16 03:08:53;;;;;;;5.28;3.05;;;;;;;10.42;66.08;96499.41;4917056;29;20052;-80
2024/02/16 03:11:20;;;;;;;3.75;2.60;;;;;;;10.34;66.17;96504.72;4916849;29;20056;-80
2024/02/16 03:13:48;;;;;;;5.03;2.83;;;;;;;10.28;66.53;96496.63;4916845;29;20048;-80
2024/02/16 03:16:17;;;;;;;5.68;2.67;;;;;;;10.25;66.67;96501.38;4916558;29;20058;-80
2024/02/16 03:18:45;;;;;;;14.25;3.15;;;;;;;10.20;66.60;96504.53;4916359;29;20052;-79
2024/02/16 03:21:16;;;;;;;4.35;3.20;;;;;;;10.16;66.80;96502.47;4916711;29;20075;-80
2024/02/16 03:23:44;;;;;;;5.15;2.85;;;;;;;10.15;66.98;96495.66;4916700;29;20051;-80
2024/02/16 03:26:16;;;;;;;4.57;3.53;;;;;;;10.16;66.94;96497.28;4916429;29;20059;-81
2024/02/16 03:28:46;;;;;;;3.35;2.70;;;;;;;10.16;66.96;96513.72;4916360;29;20056;-80
2024/02/16 03:31:19;;;;;;;4.70;3.10;;;;;;;10.18;67.18;96509.13;4916458;29;20081;-81
2024/02/16 03:33:47;;;;;;;2.90;2.60;;;;;;;10.21;66.82;96507.94;4916604;29;20508;-80
2024/02/16 03:36:16;;;;;;;6.15;3.25;;;;;;;10.22;66.77;96506.97;4917180;29;20058;-81
2024/02/16 03:38:44;;;;;;;5.30;2.95;;;;;;;10.22;66.86;96502.56;4931778;29;20059;-80
2024/02/16 03:41:14;;;;;;;4.95;3.05;;;;;;;10.23;66.78;96504.19;4935969;29;20060;-80
2024/02/16 03:43:42;;;;;;;4.97;3.42;;;;;;;10.23;66.77;96501.59;4925370;29;20051;-80
2024/02/16 03:46:10;;;;;;;3.88;3.17;;;;;;;10.22;66.67;96502.56;4917520;29;20052;-80
2024/02/16 03:48:39;;;;;;;4.90;3.42;;;;;;;10.20;66.79;96504.53;4916988;29;20052;-80
2024/02/16 03:51:07;;;;;;;5.65;3.50;;;;;;;10.20;66.81;96504.53;4916881;29;20504;-80
2024/02/16 03:53:35;;;;;;;6.43;3.38;;;;;;;10.19;66.82;96505.53;4916277;29;20075;-79
2024/02/16 03:56:02;;;;;;;5.40;3.72;;;;;;;10.18;66.86;96509.13;4916674;29;20124;-81
2024/02/16 03:58:32;;;;;;;5.55;3.53;;;;;;;10.17;67.02;96501.50;4916514;29;20058;-80
2024/02/16 04:01:00;;;;;;;5.40;3.63;;;;;;;10.10;67.27;96504.84;4916558;29;20052;-80
2024/02/16 04:03:27;;;;;;;4.65;3.83;;;;;;;10.07;67.22;96514.81;4916370;29;20048;-80
2024/02/16 04:05:57;;;;;;;4.07;3.67;;;;;;;10.02;67.65;96517.94;4916161;29;20270;-80
2024/02/16 04:08:24;;;;;;;8.45;4.95;;;;;;;10.01;67.87;96510.31;4916499;29;20056;-80
2024/02/16 04:10:52;;;;;;;6.68;4.75;;;;;;;10.01;67.95;96516.31;4916452;29;20177;-80
2024/02/16 04:13:19;;;;;;;9.95;5.20;;;;;;;10.02;68.19;96517.16;4916281;29;20048;-80
2024/02/16 04:15:47;;;;;;;7.80;5.45;;;;;;;10.01;68.73;96515.50;4915878;29;20143;-80
2024/02/16 04:18:18;;;;;;;8.32;6.53;;;;;;;9.98;68.54;96506.25;4915941;29;20104;-80
2024/02/16 04:20:46;;;;;;;10.18;6.15;;;;;;;9.94;68.91;96519.84;4916097;29;20094;-80
2024/02/16 04:23:15;;;;;;;8.15;6.25;;;;;;;9.89;69.31;96518.56;4916051;29;20445;-79
2024/02/16 04:25:43;;;;;;;9.57;6.40;;;;;;;9.87;69.56;96520.53;4915964;29;20485;-80
2024/02/16 04:28:10;;;;;;;11.63;7.35;;;;;;;9.87;69.61;96515.34;4916505;29;20147;-80
2024/02/16 04:30:38;;;;;;;12.23;8.18;;;;;;;9.83;69.62;96513.28;4919828;29;20079;-80
2024/02/16 04:33:06;;;;;;;9.48;7.28;;;;;;;9.78;69.98;96521.63;4919693;29;20293;-80
2024/02/16 04:35:34;;;;;;;9.25;7.50;;;;;;;9.74;70.14;96522.16;4919683;29;20044;-79
2024/02/16 04:38:01;;;;;;;10.73;8.35;;;;;;;9.68;70.35;96515.84;4920123;29;20075;-79
2024/02/16 04:40:37;;;;;;;13.70;8.40;;;;;;;9.65;71.00;96522.22;4920369;29;20489;-80
2024/02/16 04:43:04;;;;;;;12.52;8.77;;;;;;;9.65;70.88;96526.63;4919487;29;20087;-80
2024/02/16 04:45:32;;;;;;;13.13;8.13;;;;;;;9.62;70.89;96530.41;4919738;29;20135;-80
2024/02/16 04:48:03;;;;;;;13.40;9.15;;;;;;;9.62;71.36;96537.41;4919351;29;20593;-80
2024/02/16 04:50:33;;;;;;;11.63;9.00;;;;;;;9.62;71.03;96534.78;4919777;29;20068;-79
2024/02/16 04:53:01;;;;;;;14.75;9.73;;;;;;;9.63;71.03;96534.63;4919572;29;20130;-80
2024/02/16 04:55:29;;;;;;;13.65;9.65;;;;;;;9.64;71.06;96535.44;4919601;29;20472;-80
2024/02/16 04:57:58;;;;;;;12.95;9.85;;;;;;;9.63;71.24;96544.25;4919711;29;20116;-80
2024/02/16 05:00:26;;;;;;;14.07;10.13;;;;;;;9.60;71.32;96545.41;4928030;29;20064;-80
2024/02/16 05:02:53;;;;;;;12.30;9.55;;;;;;;9.60;71.43;96536.75;4922895;29;20505;-79
2024/02/16 05:05:22;;;;;;;11.85;9.20;;;;;;;9.62;72.23;96547.81;4919084;29;20071;-79
2024/02/16 05:07:50;;;;;;;13.68;10.60;;;;;;;9.65;71.82;96547.47;4920915;29;20501;-80
2024/02/16 05:10:19;;;;;;;14.35;11.05;;;;;;;9.63;71.59;96549.44;4920993;29;20127;-79
2024/02/16 05:12:48;;;;;;;17.00;11.65;;;;;;;9.60;71.70;96541.97;4918763;29;20056;-80
2024/02/16 05:15:17;;;;;;;15.27;10.77;;;;;;;9.57;71.84;96535.31;4918994;29;20084;-79
2024/02/16 05:17:48;;;;;;;14.18;10.05;;;;;;;9.55;72.05;96547.72;4919138;29;20059;-80
2024/02/16 05:20:16;;;;;;;14.07;9.63;;;;;;;9.53;72.10;96546.28;4919079;29;20053;-80
2024/02/16 05:22:45;;;;;;;18.83;10.30;;;;;;;9.55;71.99;96542.50;4918937;29;20148;-79
2024/02/16 05:25:13;;;;;;;12.38;10.00;;;;;;;9.59;72.06;96537.75;4918464;29;20050;-80
2024/02/16 05:27:41;;;;;;;12.95;9.82;;;;;;;9.64;72.77;96551.06;4919015;29;20139;-80
2024/02/16 05:30:14;;;;;;;13.15;10.35;;;;;;;9.62;72.31;96547.81;4918896;29;20086;-80
2024/02/16 05:32:42;;;;;;;12.45;9.25;;;;;;;9.59;71.85;96550.78;4918594;29;20052;-80
2024/02/16 05:35:12;;;;;;;11.98;9.65;;;;;;;9.56;71.99;96541.53;4918723;29;20079;-80
2024/02/16 05:37:44;;;;;;;13.52;10.02;;;;;;;9.54;71.89;96546.09;4918905;29;20056;-80
2024/02/16 05:40:21;;;;;;;14.40;10.50;;;;;;;9.56;72.03;96545.94;4918315;29;20059;-82
2024/02/16 05:42:49;;;;;;;20.92;13.05;;;;;;;9.59;71.96;96545.56;4907869;29;20056;-80
2024/02/16 05:45:18;;;;;;;19.02;11.88;;;;;;;9.59;71.88;96537.75;4916089;29;20052;-81
2024/02/16 05:47:47;;;;;;;12.98;9.73;;;;;;;9.60;71.71;96545.41;4912114;29;20051;-81
2024/02/16 05:50:15;;;;;;;15.40;10.13;;;;;;;9.62;71.26;96537.41;4915231;29;20398;-82
2024/02/16 05:52:44;;;;;;;13.40;9.60;;;;;;;9.67;71.58;96548.13;4918794;29;20056;-81
2024/02/16 05:55:12;;;;;;;13.13;9.50;;;;;;;9.68;71.30;96541.91;4902884;29;20135;-82
2024/02/16 05:57:41;;;;;;;13.88;9.90;;;;;;;9.67;71.28;96537.69;4919004;29;20060;-81
2024/02/16 06:00:10;;;;;;;14.43;9.40;;;;;;;9.66;71.71;96538.66;4918695;29;20044;-81
2024/02/16 06:02:39;;;;;;;15.15;10.40;;;;;;;9.63;71.37;96539.03;4903905;29;20048;-82
2024/02/16 06:05:08;;;;;;;15.40;11.15;;;;;;;9.57;71.94;96534.53;4909680;29;20084;-81
2024/02/16 06:07:37;;;;;;;10.50;9.40;;;;;;;9.54;72.18;96534.88;4924983;29;20087;-81
2024/02/16 06:10:10;;;;;;;13.10;9.85;;;;;;;9.55;72.24;96539.91;4923769;29;20057;-83
2024/02/16 06:12:39;;;;;;;12.95;9.88;;;;;;;9.54;72.16;96540.09;4910976;29;20071;-82
2024/02/16 06:15:08;;;;;;;13.75;10.60;;;;;;;9.57;72.01;96545.75;4899540;29;20048;-79
2024/02/16 06:17:37;;;;;;;11.65;9.02;;;;;;;9.61;72.12;96541.81;4904498;29;20080;-79
2024/02/16 06:20:09;;;;;;;15.00;9.93;;;;;;;9.65;72.05;96547.47;4908166;29;20052;-80
2024/02/16 06:22:37;;;;;;;13.10;9.77;;;;;;;9.67;72.31;96541.09;4897937;29;20568;-81
2024/02/16 06:25:05;;;;;;;13.05;9.68;;;;;;;9.72;72.01;96550.97;4896942;29;20584;-81
2024/02/16 06:27:33;;;;;;;13.48;9.75;;;;;;;9.72;72.09;96550.97;4968008;23;20425;-80
2024/02/16 06:30:07;;;;;;;13.32;9.07;;;;;;;9.75;72.06;96562.84;4905473;29;20083;-80
2024/02/16 06:32:37;;;;;;;13.50;10.75;;;;;;;9.76;72.05;96569.69;4903773;29;20087;-81
2024/02/16 06:35:11;;;;;;;14.50;11.10;;;;;;;9.76;72.29;96575.69;4888002;29;20112;-81
2024/02/16 06:37:41;;;;;;;14.27;10.50;;;;;;;9.77;72.20;96582.50;4903731;29;20055;-80
2024/02/16 06:40:13;;;;;;;15.68;11.00;;;;;;;9.80;72.05;96584.78;4904123;29;20482;-81
2024/02/16 06:42:42;;;;;;;12.20;10.88;;;;;;;9.81;73.07;96594.19;4904453;29;20139;-81
2024/02/16 06:45:13;;;;;;;12.25;10.60;;;;;;;9.77;72.58;96602.53;4906104;29;20071;-81
2024/02/16 06:47:43;;;;;;;13.65;10.98;;;;;;;9.73;73.15;96606.50;4901394;29;20068;-81
2024/02/16 06:50:14;;;;;;;14.25;10.68;;;;;;;9.68;73.12;96610.41;4883131;29;20056;-81
2024/02/16 06:52:44;;;;;;;13.77;10.93;;;;;;;9.66;72.88;96609.81;4899587;29;20056;-81
2024/02/16 06:55:14;;;;;;;12.50;10.07;;;;;;;9.66;72.71;96595.97;4900059;29;20501;-81
2024/02/16 06:57:46;;;;;;;15.77;11.30;;;;;;;9.64;72.90;96597.94;4883190;29;20068;-81
2024/02/16 07:00:19;;;;;;;13.27;10.73;;;;;;;9.63;72.69;96609.34;4899783;29;20057;-81
2024/02/16 07:02:50;;;;;;;11.40;9.80;;;;;;;9.67;73.20;96621.84;4899380;29;20072;-81
2024/02/16 07:05:24;;;;;;;15.82;11.15;;;;;;;9.68;73.15;96612.22;4899384;29;20048;-81
2024/02/16 07:07:56;;;;;;;13.45;10.55;;;;;;;9.69;72.79;96606.84;4899419;29;20532;-81
2024/02/16 07:10:25;;;;;;;;;;;;;;;9.68;73.05;96615.63;4902279;29;20076;-81
2024/02/16 07:12:56;;;;;;;13.05;11.10;;;;;;;9.65;72.45;96616.00;4898930;29;19924;-81
2024/02/16 07:15:26;;;;;;;12.80;10.70;;;;;;;9.63;72.50;96611.94;4899129;29;20056;-81
2024/02/16 07:17:56;;;;;;;15.48;12.25;;;;;;;9.64;72.38;96609.19;4899312;29;20521;-81
2024/02/16 07:20:28;;;;;;;13.82;10.75;;;;;;;9.68;72.57;96625.25;4899332;29;20056;-81
2024/02/16 07:22:58;;;;;;;14.32;10.75;;;;;;;9.71;72.42;96619.72;4899332;29;20131;-81
2024/02/16 07:25:28;;;;;;;13.45;10.57;;;;;;;9.73;72.16;96617.75;4898616;29;20056;-81
2024/02/16 07:27:58;;;;;;;17.25;10.98;;;;;;;9.73;72.33;96616.91;4899754;29;20076;-81
2024/02/16 07:30:28;;;;;;;15.32;11.02;;;;;;;9.76;72.20;96619.97;4899688;29;20059;-81
2024/02/16 07:33:10;;;;;;;13.10;10.60;;;;;;;9.81;71.77;96620.25;4899398;29;20056;-81
2024/02/16 07:35:43;;;;;;;14.05;9.98;;;;;;;9.84;71.75;96632.94;4899953;29;20056;-81
2024/02/16 07:38:13;;;;;;;12.68;10.00;;;;;;;9.85;71.60;96616.31;4898804;29;20440;-81
2024/02/16 07:40:45;;;;;;;14.35;10.07;;;;;;;9.86;71.67;96628.38;4898955;29;20073;-81
2024/02/16 07:43:15;;;;;;;13.18;9.70;;;;;;;9.87;71.49;96624.75;4899116;29;20083;-81
2024/02/16 07:45:46;;;;;;;13.15;11.10;;;;;;;9.84;71.55;96632.94;4898739;29;20054;-81
2024/02/16 07:48:16;;;;;;;13.40;11.05;;;;;;;9.85;71.68;96637.16;4900723;29;20120;-81
2024/02/16 07:50:48;;;;;;;12.02;10.63;;;;;;;9.90;71.68;96637.47;4899189;29;20056;-81
2024/02/16 07:53:17;;;;;;;13.95;10.95;;;;;;;9.96;71.64;96629.91;4885365;29;20057;-81
2024/02/16 07:55:47;;;;;;;11.43;9.45;;;;;;;9.98;71.34;96641.78;4898834;29;20044;-81
2024/02/16 07:58:17;;;;;;;14.10;11.13;;;;;;;10.03;71.59;96638.63;4901943;29;20115;-80
2024/02/16 08:00:47;;;;;;;14.15;10.38;;;;;;;10.09;71.30;96635.31;4901670;29;20112;-81
2024/02/16 08:03:19;;;;;;;11.18;9.55;;;;;;;10.16;72.01;96644.03;4903208;29;20113;-81
2024/02/16 08:05:51;;;;;;;15.38;11.02;;;;;;;10.24;71.30;96636.16;4921071;29;20032;-81
2024/02/16 08:08:20;;;;;;;12.05;10.40;;;;;;;10.27;70.81;96638.38;4917504;29;20318;-81
2024/02/16 08:10:50;;;;;;;14.30;10.65;;;;;;;10.34;70.99;96633.28;4900324;29;20060;-82
2024/02/16 08:13:23;;;;;;;11.98;9.80;;;;;;;10.45;70.67;96642.47;4899973;29;20072;-81
2024/02/16 08:15:52;;;;;;;12.23;9.93;;;;;;;10.59;70.50;96636.47;4899558;29;20056;-81
2024/02/16 08:18:22;;;;;;;11.27;9.38;;;;;;;10.74;70.44;96643.47;4900477;29;20584;-81
2024/02/16 08:20:54;;;;;;;12.32;9.52;;;;;;;10.92;69.66;96638.69;4899936;29;20500;-81
2024/02/16 08:23:25;;;;;;;11.43;9.02;;;;;;;11.18;69.82;96638.16;4900020;29;20079;-81
2024/02/16 08:26:00;;;;;;;11.57;9.15;;;;;;;11.55;69.44;96634.53;4908691;29;20109;-81
2024/02/16 08:28:35;;;;;;;11.55;8.60;;;;;;;12.16;69.98;96643.72;4916798;29;20055;-81
2024/02/16 08:31:12;;;;;;;11.43;9.00;;;;;;;12.75;66.59;96645.88;4916357;29;20148;-81
2024/02/16 08:33:58;;;;;;;13.73;8.80;;;;;;;13.12;63.55;96635.94;4914614;29;20084;-81
2024/02/16 08:36:34;;;;;;;14.20;9.20;;;;;;;13.25;62.39;96644.81;4906023;29;20056;-81
2024/02/16 08:39:11;;;;;;;10.00;8.27;;;;;;;13.15;62.20;96635.53;4915822;29;20085;-81
2024/02/16 08:41:51;;;;;;;9.38;7.28;;;;;;;13.06;61.53;96644.59;4914426;29;20056;-81
2024/02/16 08:44:53;;;;;;;11.23;7.80;;;;;;;13.05;62.44;96645.56;4915620;29;20131;-81
2024/02/16 08:50:54;;;;;;;9.43;7.75;;;;;;;13.22;62.32;96659.13;4899441;29;19979;-81
2024/02/16 09:18:50;;;;;;;8.07;6.90;;;;;;;14.41;58.43;96647.97;4824552;29;20053;-80
2024/02/16 09:24:46;;;;;;;8.70;6.32;;;;;;;14.54;58.02;96655.03;4821830;29;20058;-80
2024/02/16 09:34:44;;;;;;;6.85;5.43;;;;;;;14.77;57.21;96654.56;4812189;29;20061;-81
2024/02/16 09:49:01;;;;;;;9.18;4.90;;;;;;;15.04;56.74;96670.22;4813424;29;20089;-81
2024/02/16 10:04:39;;;;;;;6.03;3.90;;;;;;;15.16;57.00;96680.91;5569039;23;20086;-81
2024/02/16 10:07:15;;;;;;;4.07;3.15;;;;;;;15.22;58.79;96680.88;4922650;29;20058;-81
2024/02/16 10:19:57;;;;;;;2.85;1.45;;;;;;;15.40;53.95;96698.59;4945886;29;20093;-83
2024/02/16 10:22:25;;;;;;;5.38;1.63;;;;;;;15.42;54.96;96688.69;4950378;29;20147;-83
2024/02/16 10:24:53;;;;;;;2.28;1.40;;;;;;;15.45;54.43;96687.44;4949394;29;20055;-81
2024/02/16 10:27:20;;;;;;;1.80;1.33;;;;;;;15.47;52.71;96695.94;4948008;29;20487;-82
2024/02/16 10:29:50;;;;;;;1.60;1.05;;;;;;;15.48;51.97;96691.47;4932461;29;20067;-83
2024/02/16 10:32:20;;;;;;;2.10;1.33;;;;;;;15.51;53.43;96693.69;4932040;29;20075;-82
2024/02/16 10:34:49;;;;;;;4.63;1.45;;;;;;;15.55;51.89;96695.69;4932164;29;20082;-84
2024/02/16 10:37:19;;;;;;;3.38;1.73;;;;;;;15.58;50.42;96703.16;4933011;29;20048;-83
2024/02/16 10:39:48;;;;;;;2.70;1.58;;;;;;;15.60;54.62;96706.38;4932105;29;20076;-84
2024/02/16 10:42:19;;;;;;;2.42;1.40;;;;;;;15.62;55.29;96699.09;4931832;29;20048;-83
2024/02/16 10:44:47;;;;;;;2.00;1.52;;;;;;;15.62;52.38;96704.34;4931628;29;20048;-82
2024/02/16 10:47:15;;;;;;;4.82;1.80;;;;;;;15.63;51.07;96705.97;4931119;29;20072;-82
2024/02/16 10:49:42;;;;;;;4.88;1.40;;;;;;;15.65;51.37;96705.75;4931597;29;20099;-81
2024/02/16 10:52:12;;;;;;;2.75;1.40;;;;;;;15.65;50.46;96703.94;4930424;29;20059;-81
2024/02/16 10:54:43;;;;;;;6.32;2.15;;;;;;;15.67;52.37;96711.59;4929485;29;20060;-83
2024/02/16 10:57:11;;;;;;;5.43;2.13;;;;;;;15.68;50.86;96709.75;4930856;29;20056;-81
2024/02/16 10:59:44;;;;;;;3.88;2.30;;;;;;;15.69;49.28;96708.75;4930959;29;20445;-83
2024/02/16 11:02:12;;;;;;;9.43;3.95;;;;;;;15.69;51.12;96704.31;4929864;29;20528;-81
2024/02/16 11:04:40;;;;;;;11.98;6.40;;;;;;;15.71;50.45;96709.34;4930062;29;20114;-80
2024/02/16 11:07:12;;;;;;;8.93;3.85;;;;;;;15.73;52.71;96707.34;4930150;29;20048;-80
2024/02/16 11:09:42;;;;;;;3.88;2.10;;;;;;;15.76;51.20;96707.72;4929693;29;20075;-83
2024/02/16 11:12:13;;;;;;;2.92;1.55;;;;;;;15.80;50.01;96702.84;4929981;29;20055;-80
2024/02/16 11:14:42;;;;;;;2.40;1.60;;;;;;;15.86;49.58;96712.53;4928846;29;20062;-80
2024/02/16 11:17:11;;;;;;;2.25;1.30;;;;;;;15.91;52.29;96711.91;4928867;29;20095;-81
2024/02/16 11:19:41;;;;;;;2.70;1.48;;;;;;;15.95;51.18;96710.44;4928659;29;20052;-84
2024/02/16 11:22:11;;;;;;;3.67;1.67;;;;;;;15.98;50.26;96713.47;4929236;29;20058;-84
2024/02/16 11:24:44;;;;;;;4.50;1.40;;;;;;;16.02;50.38;96714.63;4929587;29;20096;-80
2024/02/16 11:27:15;;;;;;;2.55;1.25;;;;;;;16.04;49.94;96715.22;4929209;29;20591;-82
2024/02/16 11:29:43;;;;;;;4.22;1.58;;;;;;;16.10;50.90;96715.41;4929596;29;20052;-80
2024/02/16 11:32:12;;;;;;;1.52;1.10;;;;;;;16.14;51.40;96711.34;4929622;29;20056;-81
2024/02/16 11:34:39;;;;;;;3.92;2.00;;;;;;;16.19;50.49;96711.50;4929004;29;20094;-82
2024/02/16 11:37:07;;;;;;;5.78;2.42;;;;;;;16.25;52.59;96718.53;4929181;29;20082;-81
2024/02/16 11:39:37;;;;;;;6.45;1.40;;;;;;;16.30;52.71;96710.00;4928099;29;20143;-80
2024/02/16 11:42:06;;;;;;;2.10;1.30;;;;;;;16.35;50.02;96718.84;4928168;29;20527;-81
2024/02/16 11:44:39;;;;;;;2.28;1.23;;;;;;;16.40;50.16;96720.84;4928661;29;20513;-79
2024/02/16 11:47:12;;;;;;;1.70;1.20;;;;;;;16.41;52.53;96715.34;4929120;29;20544;-80
2024/02/16 11:49:39;;;;;;;;;;;;;;;16.50;51.31;96715.88;4928053;29;20059;-80
2024/02/16 11:52:08;;;;;;;2.17;1.48;;;;;;;16.62;52.03;96722.06;4927891;29;20014;-79
2024/02/16 11:54:36;;;;;;;2.40;1.95;;;;;;;16.76;49.60;96719.31;4927977;29;20115;-81
2024/02/16 11:57:05;;;;;;;7.38;1.95;;;;;;;16.88;48.87;96718.41;4929127;29;20448;-81
2024/02/16 11:59:33;;;;;;;3.67;1.88;;;;;;;16.96;49.02;96724.41;4928631;29;20052;-81
2024/02/16 12:02:02;;;;;;;3.85;1.70;;;;;;;17.00;49.06;96721.09;4928908;29;20079;-82
2024/02/16 12:04:31;;;;;;;2.47;1.45;;;;;;;17.05;49.40;96729.19;4928941;29;20074;-82
2024/02/16 12:07:04;;;;;;;15.00;7.85;;;;;;;17.10;48.53;96725.88;4927463;29;20107;-82
2024/02/16 12:09:34;;;;;;;20.48;11.55;;;;;;;17.14;49.83;96727.03;4926643;29;20568;-79
2024/02/16 12:12:03;;;;;;;5.03;2.58;;;;;;;17.13;48.11;96725.44;4928212;29;20056;-82
2024/02/16 12:14:31;;;;;;;5.88;3.85;;;;;;;17.14;47.64;96727.03;4928122;29;20067;-82
2024/02/16 12:16:59;;;;;;;4.97;2.15;;;;;;;17.14;48.93;96724.38;4928366;29;20087;-80
2024/02/16 12:19:28;;;;;;;5.65;2.20;;;;;;;17.14;50.74;96727.03;4928262;29;20055;-82
2024/02/16 12:21:57;;;;;;;4.72;2.33;;;;;;;17.15;48.45;96727.84;4928970;29;20052;-84
2024/02/16 12:24:26;;;;;;;7.68;4.75;;;;;;;17.14;48.46;96732.28;4927733;29;20059;-81
2024/02/16 12:26:54;;;;;;;6.82;1.85;;;;;;;17.14;47.54;96727.03;4928177;29;20481;-80
2024/02/16 12:29:22;;;;;;;3.15;2.22;;;;;;;17.14;49.85;96734.13;4927886;29;20060;-80
2024/02/16 12:31:50;;;;;;;2.97;1.88;;;;;;;17.16;49.53;96729.44;4927539;29;20076;-81
2024/02/16 12:34:17;;;;;;;2.25;1.58;;;;;;;17.15;48.30;96731.28;4928977;29;20076;-81
2024/02/16 12:36:47;;;;;;;2.97;1.40;;;;;;;17.13;49.12;96729.91;4927933;29;20076;-79
2024/02/16 12:39:17;;;;;;;4.38;1.92;;;;;;;17.13;48.43;96729.91;4926827;29;20063;-82
2024/02/16 12:41:45;;;;;;;6.55;2.35;;;;;;;17.13;48.81;96725.44;4928089;29;20147;-81
2024/02/16 12:44:13;;;;;;;2.90;1.58;;;;;;;17.14;48.11;96727.03;4925844;29;20135;-82
2024/02/16 12:46:41;;;;;;;1.85;1.65;;;;;;;17.22;48.08;96723.28;4925682;29;20076;-82
2024/02/16 12:49:09;;;;;;;5.28;1.85;;;;;;;17.28;47.65;96722.41;4925041;29;20472;-82
2024/02/16 12:51:37;;;;;;;5.85;1.90;;;;;;;17.32;48.36;96722.75;4929160;29;20083;-81
2024/02/16 12:54:06;;;;;;;2.00;1.80;;;;;;;17.34;48.85;96720.72;4929125;29;20075;-85
2024/02/16 12:56:34;;;;;;;1.58;1.48;;;;;;;17.32;48.39;96722.75;4928472;29;20055;-83